createdAt,value
2023-03-17T00:00:06.802Z,6.32
2023-03-17T00:02:52.036Z,6.35
2023-03-17T00:05:37.453Z,6.42
2023-03-17T00:08:27.725Z,6.36
2023-03-17T00:11:16.048Z,6.39
2023-03-17T00:14:01.290Z,6.45
2023-03-17T00:16:52.295Z,6.43
2023-03-17T00:19:37.586Z,6.33
2023-03-17T00:22:22.931Z,6.36
2023-03-17T00:25:23.663Z,6.37
2023-03-17T00:28:16.059Z,6.40
2023-03-17T00:31:01.678Z,6.32
2023-03-17T00:33:48.338Z,6.37
2023-03-17T00:36:34.379Z,6.39
2023-03-17T00:39:19.734Z,6.45
2023-03-17T00:42:06.525Z,6.36
2023-03-17T00:44:51.303Z,6.28
2023-03-17T00:47:37.325Z,6.25
2023-03-17T00:50:25.563Z,6.18
2023-03-17T00:53:18.861Z,6.19
2023-03-17T00:56:05.910Z,6.20
2023-03-17T00:58:51.410Z,6.26
2023-03-17T01:01:36.933Z,6.28
2023-03-17T01:04:22.858Z,6.26
2023-03-17T01:07:10.780Z,6.24
2023-03-17T01:09:56.113Z,6.45
2023-03-17T01:12:41.237Z,6.45
2023-03-17T01:15:30.286Z,6.44
2023-03-17T01:18:17.676Z,6.45
2023-03-17T01:21:03.621Z,6.25
2023-03-17T01:23:48.912Z,6.22
2023-03-17T01:26:34.271Z,6.33
2023-03-17T01:29:19.577Z,6.37
2023-03-17T01:32:04.933Z,6.39
2023-03-17T01:34:49.614Z,6.29
2023-03-17T01:37:34.549Z,6.17
2023-03-17T01:40:33.813Z,6.17
2023-03-17T01:43:25.816Z,6.20
2023-03-17T01:46:17.014Z,6.17
2023-03-17T01:49:24.485Z,6.05
2023-03-17T01:52:13.516Z,6.11
2023-03-17T01:55:05.166Z,6.15
2023-03-17T01:57:53.422Z,6.16
2023-03-17T02:00:39.358Z,6.08
2023-03-17T02:03:25.866Z,6.13
2023-03-17T02:06:11.590Z,6.14
2023-03-17T02:08:57.890Z,6.27
2023-03-17T02:11:44.481Z,6.27
2023-03-17T02:14:29.856Z,6.36
2023-03-17T02:17:14.889Z,6.49
2023-03-17T02:20:29.650Z,6.34
2023-03-17T02:23:18.872Z,6.29
2023-03-17T02:26:04.139Z,6.25
2023-03-17T02:28:49.245Z,6.33
2023-03-17T02:31:34.147Z,6.11
2023-03-17T02:34:19.276Z,6.04
2023-03-17T02:37:05.636Z,5.88
2023-03-17T02:39:50.601Z,5.78
2023-03-17T02:42:35.667Z,5.73
2023-03-17T02:45:21.132Z,5.63
2023-03-17T02:48:06.070Z,5.51
2023-03-17T02:50:51.337Z,5.75
2023-03-17T02:53:36.262Z,5.89
2023-03-17T02:56:21.044Z,5.90
2023-03-17T02:59:06.024Z,5.93
2023-03-17T03:01:50.888Z,5.84
2023-03-17T03:04:36.118Z,5.83
2023-03-17T03:07:21.089Z,5.76
2023-03-17T03:10:06.531Z,5.57
2023-03-17T03:12:51.641Z,5.54
2023-03-17T03:15:37.105Z,5.80
2023-03-17T03:18:22.416Z,5.71
2023-03-17T03:21:07.810Z,5.56
2023-03-17T03:23:53.240Z,5.59
2023-03-17T03:26:38.447Z,5.63
2023-03-17T03:29:23.326Z,5.58
2023-03-17T03:32:08.654Z,5.61
2023-03-17T03:34:53.968Z,5.70
2023-03-17T03:37:38.884Z,5.63
2023-03-17T03:40:25.180Z,5.62
2023-03-17T03:43:22.526Z,5.73
2023-03-17T03:46:09.012Z,5.69
2023-03-17T03:48:54.979Z,5.66
2023-03-17T03:51:40.010Z,5.71
2023-03-17T03:54:25.310Z,5.68
2023-03-17T03:57:10.793Z,5.70
2023-03-17T03:59:55.885Z,5.55
2023-03-17T04:02:41.955Z,5.57
2023-03-17T04:05:27.094Z,5.53
2023-03-17T04:08:12.583Z,5.53
2023-03-17T04:10:58.371Z,5.54
2023-03-17T04:13:43.656Z,5.54
2023-03-17T04:16:29.186Z,5.53
2023-03-17T04:19:14.783Z,5.58
2023-03-17T04:22:00.040Z,5.56
2023-03-17T04:24:45.538Z,5.61
2023-03-17T04:27:30.545Z,5.61
2023-03-17T04:30:15.546Z,5.62
2023-03-17T04:33:00.678Z,5.53
2023-03-17T04:35:46.056Z,5.62
2023-03-17T04:38:31.354Z,5.62
2023-03-17T04:41:16.230Z,5.62
2023-03-17T04:44:01.511Z,5.55
2023-03-17T04:46:46.622Z,5.56
2023-03-17T04:49:31.547Z,5.65
2023-03-17T04:52:17.080Z,5.56
2023-03-17T04:55:02.393Z,5.52
2023-03-17T04:57:47.612Z,5.47
2023-03-17T05:00:32.924Z,5.34
2023-03-17T05:03:26.743Z,5.29
2023-03-17T05:06:13.155Z,5.48
2023-03-17T05:08:58.611Z,5.40
2023-03-17T05:11:43.826Z,5.45
2023-03-17T05:14:28.845Z,5.28
2023-03-17T05:17:14.815Z,5.32
2023-03-17T05:20:00.004Z,5.21
2023-03-17T05:22:44.998Z,5.21
2023-03-17T05:25:30.307Z,5.24
2023-03-17T05:28:15.216Z,5.35
2023-03-17T05:31:00.738Z,5.22
2023-03-17T05:33:46.037Z,5.33
2023-03-17T05:36:32.029Z,5.33
2023-03-17T05:39:17.122Z,5.29
2023-03-17T05:42:02.727Z,5.09
2023-03-17T05:44:47.751Z,5.10
2023-03-17T05:47:33.501Z,5.13
2023-03-17T05:50:18.745Z,5.06
2023-03-17T05:53:03.880Z,5.01
2023-03-17T05:55:49.426Z,5.12
2023-03-17T05:58:34.253Z,5.21
2023-03-17T06:01:19.232Z,5.26
2023-03-17T06:04:04.577Z,5.32
2023-03-17T06:06:49.971Z,5.56
2023-03-17T06:09:35.846Z,5.74
2023-03-17T06:12:21.160Z,5.90
2023-03-17T06:15:07.043Z,6.15
2023-03-17T06:17:52.222Z,6.24
2023-03-17T06:20:37.389Z,6.20
2023-03-17T06:23:22.376Z,6.54
2023-03-17T06:26:07.916Z,6.37
2023-03-17T06:28:52.980Z,6.37
2023-03-17T06:31:39.565Z,6.28
2023-03-17T06:34:24.960Z,6.31
2023-03-17T06:37:10.365Z,6.25
2023-03-17T06:39:55.439Z,6.36
2023-03-17T06:42:40.442Z,6.49
2023-03-17T06:45:26.137Z,6.68
2023-03-17T06:48:12.127Z,6.85
2023-03-17T06:50:57.281Z,6.84
2023-03-17T06:53:42.857Z,6.84
2023-03-17T06:56:30.482Z,6.74
2023-03-17T06:59:15.768Z,6.61
2023-03-17T07:02:00.985Z,6.74
2023-03-17T07:04:46.337Z,6.89
2023-03-17T07:07:31.311Z,7.03
2023-03-17T07:10:16.966Z,7.11
2023-03-17T07:13:02.281Z,7.15
2023-03-17T07:15:48.921Z,7.48
2023-03-17T07:18:33.936Z,7.82
2023-03-17T07:21:19.278Z,7.99
2023-03-17T07:24:04.712Z,7.77
2023-03-17T07:26:49.988Z,8.21
2023-03-17T07:29:35.041Z,8.16
2023-03-17T07:32:20.114Z,8.53
2023-03-17T07:35:06.087Z,8.24
2023-03-17T07:37:51.486Z,8.24
2023-03-17T07:40:36.525Z,8.07
2023-03-17T07:43:21.487Z,8.47
2023-03-17T07:46:06.959Z,8.95
2023-03-17T07:48:52.665Z,9.10
2023-03-17T07:51:38.031Z,9.70
2023-03-17T07:54:23.207Z,9.55
2023-03-17T07:57:08.618Z,10.06
2023-03-17T07:59:54.325Z,10.49
2023-03-17T08:02:40.024Z,10.42
2023-03-17T08:05:25.497Z,10.04
2023-03-17T08:08:10.515Z,9.97
2023-03-17T08:11:03.677Z,10.69
2023-03-17T08:13:49.428Z,10.82
2023-03-17T08:16:34.501Z,11.18
2023-03-17T08:19:19.517Z,11.28
2023-03-17T08:22:04.689Z,11.52
2023-03-17T08:24:49.888Z,11.56
2023-03-17T08:27:35.008Z,10.66
2023-03-17T08:30:20.578Z,10.47
2023-03-17T08:33:05.908Z,10.54
2023-03-17T08:35:51.270Z,10.61
2023-03-17T08:38:41.481Z,10.72
2023-03-17T08:41:27.876Z,11.05
2023-03-17T08:44:13.996Z,11.43
2023-03-17T08:46:59.210Z,11.72
2023-03-17T08:49:44.995Z,11.16
2023-03-17T08:52:32.205Z,11.02
2023-03-17T08:55:18.368Z,11.31
2023-03-17T08:58:03.648Z,11.88
2023-03-17T09:00:48.840Z,11.73
2023-03-17T09:03:34.205Z,12.26
2023-03-17T09:06:19.389Z,11.94
2023-03-17T09:09:04.736Z,11.46
2023-03-17T09:11:49.683Z,11.55
2023-03-17T09:14:43.332Z,11.87
2023-03-17T09:17:29.222Z,11.96
2023-03-17T09:20:14.597Z,12.16
2023-03-17T09:22:59.778Z,12.13
2023-03-17T09:25:45.140Z,11.88
2023-03-17T09:28:30.504Z,11.92
2023-03-17T09:31:15.793Z,11.93
2023-03-17T09:34:01.311Z,12.07
2023-03-17T09:36:46.595Z,12.28
2023-03-17T09:39:32.066Z,12.40
2023-03-17T09:42:42.432Z,12.69
2023-03-17T09:45:38.218Z,12.83
2023-03-17T09:48:31.925Z,12.82
2023-03-17T09:51:18.819Z,12.84
2023-03-17T09:54:27.082Z,13.18
2023-03-17T09:57:37.480Z,13.06
2023-03-17T10:03:25.959Z,13.49
2023-03-17T10:06:21.515Z,13.41
2023-03-17T10:09:27.069Z,13.39
2023-03-17T10:12:27.099Z,13.62
2023-03-17T10:15:25.203Z,14.15
2023-03-17T10:18:13.927Z,14.21
2023-03-17T10:21:06.517Z,14.18
2023-03-17T10:23:53.868Z,14.21
2023-03-17T10:26:48.694Z,14.31
2023-03-17T10:29:34.266Z,14.35
2023-03-17T10:32:19.271Z,14.61
2023-03-17T10:35:04.931Z,14.84
2023-03-17T10:37:51.123Z,15.04
2023-03-17T10:40:37.323Z,15.07
2023-03-17T10:43:28.987Z,14.81
2023-03-17T10:46:25.971Z,14.69
2023-03-17T10:49:17.252Z,14.85
2023-03-17T10:52:07.439Z,14.71
2023-03-17T10:54:54.541Z,14.96
2023-03-17T10:57:49.402Z,15.13
2023-03-17T11:00:37.304Z,15.31
2023-03-17T11:03:25.299Z,15.54
2023-03-17T11:06:19.625Z,15.72
2023-03-17T11:09:08.824Z,15.76
2023-03-17T11:12:28.062Z,15.74
2023-03-17T11:15:15.385Z,15.55
2023-03-17T11:18:21.831Z,15.82
2023-03-17T11:21:16.600Z,15.66
2023-03-17T11:24:13.992Z,15.34
2023-03-17T11:27:31.174Z,15.48
2023-03-17T11:30:42.584Z,15.47
2023-03-17T11:33:35.954Z,15.59
2023-03-17T11:36:37.979Z,15.45
2023-03-17T11:39:27.914Z,15.62
2023-03-17T11:42:43.038Z,15.73
2023-03-17T11:45:31.354Z,15.71
2023-03-17T11:48:19.852Z,15.48
2023-03-17T11:51:14.299Z,15.83
2023-03-17T11:54:31.067Z,16.26
2023-03-17T11:57:42.521Z,16.27
2023-03-17T12:00:35.811Z,16.68
2023-03-17T12:03:41.260Z,16.30
2023-03-17T12:06:33.898Z,16.32
2023-03-17T12:09:30.320Z,16.62
2023-03-17T12:12:26.381Z,17.14
2023-03-17T12:15:40.156Z,17.21
2023-03-17T12:18:29.413Z,17.09
2023-03-17T12:21:38.511Z,17.31
2023-03-17T12:24:32.782Z,17.17
2023-03-17T12:27:25.113Z,17.67
2023-03-17T12:30:31.736Z,17.46
2023-03-17T12:33:23.213Z,17.55
2023-03-17T12:36:13.167Z,17.22
2023-03-17T12:39:01.305Z,17.44
2023-03-17T12:42:07.646Z,17.36
2023-03-17T12:45:22.533Z,17.86
2023-03-17T12:48:19.643Z,18.34
2023-03-17T12:51:22.853Z,18.11
2023-03-17T12:54:26.371Z,17.92
2023-03-17T12:57:19.244Z,18.01
2023-03-17T13:00:26.518Z,17.82
2023-03-17T13:03:29.210Z,17.63
2023-03-17T13:06:19.746Z,17.53
2023-03-17T13:09:46.171Z,17.23
2023-03-17T13:12:40.280Z,17.10
2023-03-17T13:15:25.272Z,17.13
2023-03-17T13:18:16.755Z,17.39
2023-03-17T13:21:01.999Z,17.37
2023-03-17T13:24:16.446Z,17.34
2023-03-17T13:27:03.512Z,17.41
2023-03-17T13:29:48.564Z,17.41
2023-03-17T13:32:35.622Z,17.34
2023-03-17T13:35:25.239Z,17.39
2023-03-17T13:38:13.339Z,17.46
2023-03-17T13:41:22.307Z,17.82
2023-03-17T13:44:12.598Z,18.06
2023-03-17T13:47:16.384Z,17.43
2023-03-17T13:50:08.001Z,17.69
2023-03-17T13:53:02.014Z,17.63
2023-03-17T13:56:22.768Z,17.72
2023-03-17T13:59:16.599Z,17.41
2023-03-17T14:02:16.112Z,17.47
2023-03-17T14:05:05.053Z,17.49
2023-03-17T14:08:00.541Z,17.73
2023-03-17T14:10:53.961Z,17.68
2023-03-17T14:13:54.022Z,17.75
2023-03-17T14:16:45.004Z,17.79
2023-03-17T14:19:30.844Z,17.54
2023-03-17T14:22:26.105Z,17.76
2023-03-17T14:25:21.696Z,17.61
2023-03-17T14:28:12.393Z,17.53
2023-03-17T14:31:03.374Z,17.47
2023-03-17T14:33:52.335Z,17.20
2023-03-17T14:36:37.667Z,17.33
2023-03-17T14:39:25.405Z,17.33
2023-03-17T14:42:11.101Z,17.16
2023-03-17T14:45:06.048Z,16.96
2023-03-17T14:47:51.495Z,16.84
2023-03-17T14:50:36.459Z,16.78
2023-03-17T14:53:23.860Z,16.67
2023-03-17T14:56:09.872Z,16.58
2023-03-17T14:58:55.078Z,16.27
2023-03-17T15:01:45.922Z,16.47
2023-03-17T15:04:33.739Z,16.50
2023-03-17T15:07:45.323Z,16.39
2023-03-17T15:10:41.985Z,16.13
2023-03-17T15:13:28.712Z,16.06
2023-03-17T15:16:29.064Z,15.93
2023-03-17T15:19:28.903Z,16.02
2023-03-17T15:22:38.035Z,15.68
2023-03-17T15:25:32.345Z,15.60
2023-03-17T15:28:20.109Z,15.58
2023-03-17T15:31:13.392Z,15.59
2023-03-17T15:34:00.994Z,15.52
2023-03-17T15:36:46.385Z,15.58
2023-03-17T15:39:33.419Z,15.40
2023-03-17T15:42:20.568Z,15.43
2023-03-17T15:45:06.501Z,15.36
2023-03-17T15:47:53.796Z,15.20
2023-03-17T15:50:39.040Z,15.26
2023-03-17T15:53:24.441Z,15.18
2023-03-17T15:56:19.585Z,15.28
2023-03-17T15:59:08.783Z,15.16
2023-03-17T16:01:54.480Z,15.23
2023-03-17T16:04:41.544Z,14.95
2023-03-17T16:07:27.059Z,14.93
2023-03-17T16:10:24.300Z,14.75
2023-03-17T16:13:10.480Z,14.55
2023-03-17T16:15:59.147Z,14.63
2023-03-17T16:18:44.606Z,14.48
2023-03-17T16:21:30.533Z,14.67
2023-03-17T16:24:21.192Z,14.67
2023-03-17T16:27:14.556Z,14.42
2023-03-17T16:29:59.806Z,14.29
2023-03-17T16:32:45.411Z,14.19
2023-03-17T16:35:30.796Z,14.19
2023-03-17T16:38:18.805Z,14.15
2023-03-17T16:41:15.294Z,14.17
2023-03-17T16:44:02.452Z,14.17
2023-03-17T16:46:48.991Z,14.30
2023-03-17T16:49:35.835Z,14.20
2023-03-17T16:52:25.126Z,14.05
2023-03-17T16:55:10.945Z,14.04
2023-03-17T16:57:59.841Z,13.89
2023-03-17T17:00:45.885Z,13.72
2023-03-17T17:03:31.287Z,13.73
2023-03-17T17:06:18.294Z,13.70
2023-03-17T17:09:04.002Z,13.82
2023-03-17T17:11:49.318Z,13.88
2023-03-17T17:14:34.838Z,13.91
2023-03-17T17:17:20.260Z,13.89
2023-03-17T17:20:36.374Z,14.04
2023-03-17T17:23:25.451Z,13.98
2023-03-17T17:26:10.803Z,13.84
2023-03-17T17:28:55.787Z,13.55
2023-03-17T17:31:40.705Z,13.57
2023-03-17T17:34:26.316Z,13.62
2023-03-17T17:37:11.903Z,13.62
2023-03-17T17:39:57.657Z,13.70
2023-03-17T17:42:43.773Z,13.58
2023-03-17T17:45:28.767Z,13.62
2023-03-17T17:48:19.724Z,13.59
2023-03-17T17:51:04.822Z,13.49
2023-03-17T17:53:49.997Z,13.41
2023-03-17T17:56:34.956Z,13.25
2023-03-17T17:59:20.402Z,13.25
2023-03-17T18:02:05.957Z,13.39
2023-03-17T18:04:51.228Z,13.46
2023-03-17T18:07:36.831Z,13.56
2023-03-17T18:10:23.768Z,13.67
2023-03-17T18:13:09.579Z,13.45
2023-03-17T18:15:55.138Z,13.48
2023-03-17T18:18:40.438Z,13.60
2023-03-17T18:21:25.324Z,13.55
2023-03-17T18:24:10.650Z,13.15
2023-03-17T18:26:56.112Z,13.29
2023-03-17T18:29:41.638Z,13.05
2023-03-17T18:32:28.378Z,12.83
2023-03-17T18:35:17.756Z,12.78
2023-03-17T18:38:03.308Z,12.82
2023-03-17T18:40:48.476Z,12.88
2023-03-17T18:43:34.088Z,12.91
2023-03-17T18:46:19.284Z,12.84
2023-03-17T18:49:06.362Z,12.83
2023-03-17T18:51:51.860Z,12.94
2023-03-17T18:54:37.659Z,12.84
2023-03-17T18:57:23.177Z,12.69
2023-03-17T19:00:09.808Z,12.45
2023-03-17T19:02:55.094Z,12.45
2023-03-17T19:05:40.512Z,12.46
2023-03-17T19:08:25.869Z,12.43
2023-03-17T19:11:13.546Z,12.36
2023-03-17T19:13:58.786Z,12.34
2023-03-17T19:16:44.158Z,12.29
2023-03-17T19:19:29.719Z,12.28
2023-03-17T19:22:15.194Z,12.20
2023-03-17T19:25:00.663Z,12.23
2023-03-17T19:27:46.158Z,12.27
2023-03-17T19:30:31.803Z,12.40
2023-03-17T19:33:17.118Z,12.29
2023-03-17T19:36:07.842Z,12.18
2023-03-17T19:38:53.250Z,12.10
2023-03-17T19:41:39.038Z,12.10
2023-03-17T19:44:24.826Z,12.11
2023-03-17T19:47:09.966Z,12.07
2023-03-17T19:49:55.539Z,12.00
2023-03-17T19:52:40.861Z,12.09
2023-03-17T19:55:26.458Z,11.85
2023-03-17T19:58:11.894Z,11.70
2023-03-17T20:00:57.327Z,11.69
2023-03-17T20:03:42.911Z,11.89
2023-03-17T20:06:28.127Z,11.87
2023-03-17T20:09:13.940Z,11.81
2023-03-17T20:11:58.843Z,11.76
2023-03-17T20:14:46.566Z,11.58
2023-03-17T20:17:31.657Z,11.53
2023-03-17T20:20:17.018Z,11.65
2023-03-17T20:23:02.655Z,11.71
2023-03-17T20:25:48.979Z,11.57
2023-03-17T20:28:34.185Z,11.53
2023-03-17T20:31:19.456Z,11.54
2023-03-17T20:34:04.815Z,11.51
2023-03-17T20:36:50.414Z,11.50
2023-03-17T20:39:36.533Z,11.51
2023-03-17T20:42:21.671Z,11.66
2023-03-17T20:45:07.394Z,11.71
2023-03-17T20:47:52.612Z,11.48
2023-03-17T20:50:38.712Z,11.35
2023-03-17T20:53:24.375Z,11.20
2023-03-17T20:56:13.790Z,11.12
2023-03-17T20:58:59.155Z,11.12
2023-03-17T21:01:44.385Z,11.17
2023-03-17T21:04:29.662Z,11.19
2023-03-17T21:07:17.545Z,11.32
2023-03-17T21:10:02.600Z,11.31
2023-03-17T21:12:48.291Z,11.36
2023-03-17T21:15:33.700Z,11.29
2023-03-17T21:18:19.139Z,11.30
2023-03-17T21:21:04.458Z,11.29
2023-03-17T21:23:49.530Z,11.36
2023-03-17T21:26:35.228Z,11.41
2023-03-17T21:29:20.555Z,11.53
2023-03-17T21:32:06.906Z,11.65
2023-03-17T21:34:52.185Z,11.83
2023-03-17T21:37:37.426Z,11.85
2023-03-17T21:40:24.064Z,11.84
2023-03-17T21:43:09.599Z,11.92
2023-03-17T21:45:55.079Z,11.95
2023-03-17T21:48:40.559Z,11.97
2023-03-17T21:51:26.128Z,12.00
2023-03-17T21:54:11.387Z,11.86
2023-03-17T21:56:56.502Z,11.93
2023-03-17T21:59:41.592Z,11.89
2023-03-17T22:02:27.069Z,11.89
2023-03-17T22:05:12.044Z,11.87
2023-03-17T22:07:57.414Z,11.89
2023-03-17T22:10:42.787Z,11.89
2023-03-17T22:13:28.085Z,11.93
2023-03-17T22:16:14.903Z,11.95
2023-03-17T22:19:00.253Z,11.91
2023-03-17T22:21:45.742Z,11.82
2023-03-17T22:24:31.245Z,11.77
2023-03-17T22:27:17.877Z,11.83
2023-03-17T22:30:04.083Z,11.71
2023-03-17T22:32:49.356Z,11.73
2023-03-17T22:35:35.457Z,11.77
2023-03-17T22:38:21.541Z,11.72
2023-03-17T22:41:11.333Z,11.70
2023-03-17T22:43:57.165Z,11.69
2023-03-17T22:46:42.586Z,11.67
2023-03-17T22:49:27.831Z,11.70
2023-03-17T22:52:13.395Z,11.71
2023-03-17T22:54:58.781Z,11.72
2023-03-17T22:57:44.229Z,11.72
2023-03-17T23:00:30.543Z,11.71
2023-03-17T23:03:16.297Z,11.75
2023-03-17T23:06:03.723Z,11.72
2023-03-17T23:08:49.414Z,11.69
2023-03-17T23:11:34.906Z,11.69
2023-03-17T23:14:20.168Z,11.74
2023-03-17T23:17:06.008Z,11.60
2023-03-17T23:19:51.394Z,11.59
2023-03-17T23:22:38.392Z,11.43
2023-03-17T23:25:23.639Z,11.40
2023-03-17T23:28:09.647Z,11.36
2023-03-17T23:30:54.719Z,11.29
2023-03-17T23:33:40.164Z,11.08
2023-03-17T23:36:25.163Z,11.05
2023-03-17T23:39:10.525Z,10.96
2023-03-17T23:41:55.696Z,10.79
2023-03-17T23:44:40.590Z,10.84
2023-03-17T23:47:26.045Z,10.84
2023-03-17T23:50:13.301Z,10.86
2023-03-17T23:52:58.724Z,10.66
2023-03-17T23:55:44.028Z,10.53
2023-03-17T23:58:29.299Z,10.50
